createdAt,value
2022-10-31T00:00:53.638Z,13.05
2022-10-31T00:03:39.648Z,13.68
2022-10-31T00:06:25.420Z,13.46
2022-10-31T00:09:11.284Z,12.83
2022-10-31T00:11:57.204Z,12.46
2022-10-31T00:14:43.209Z,13.62
2022-10-31T00:17:29.000Z,14.48
2022-10-31T00:20:14.928Z,15.00
2022-10-31T00:23:00.782Z,14.30
2022-10-31T00:25:46.777Z,14.55
2022-10-31T00:28:32.706Z,14.71
2022-10-31T00:31:20.599Z,14.43
2022-10-31T00:34:06.665Z,13.61
2022-10-31T00:36:52.584Z,14.52
2022-10-31T00:39:39.071Z,14.18
2022-10-31T00:42:25.067Z,11.73
2022-10-31T00:45:11.130Z,11.15
2022-10-31T00:47:57.323Z,12.24
2022-10-31T00:50:43.428Z,13.16
2022-10-31T00:53:29.246Z,13.74
2022-10-31T00:56:15.120Z,13.93
2022-10-31T00:59:01.078Z,14.14
2022-10-31T01:01:47.004Z,13.49
2022-10-31T01:04:33.366Z,12.99
2022-10-31T01:07:19.352Z,12.84
2022-10-31T01:10:05.214Z,13.06
2022-10-31T01:12:51.205Z,13.70
2022-10-31T01:15:37.092Z,13.53
2022-10-31T01:18:22.812Z,13.30
2022-10-31T01:21:08.875Z,13.27
2022-10-31T01:23:54.726Z,12.96
2022-10-31T01:26:40.759Z,12.43
2022-10-31T01:29:26.646Z,13.43
2022-10-31T01:32:12.725Z,12.62
2022-10-31T01:35:00.637Z,12.06
2022-10-31T01:37:46.518Z,11.68
2022-10-31T01:40:32.383Z,12.09
2022-10-31T01:43:18.273Z,11.13
2022-10-31T01:46:04.098Z,10.79
2022-10-31T01:48:49.996Z,10.95
2022-10-31T01:51:37.945Z,10.90
2022-10-31T01:54:23.816Z,10.51
2022-10-31T01:57:09.550Z,10.24
2022-10-31T01:59:55.644Z,9.90
2022-10-31T02:02:41.612Z,10.48
2022-10-31T02:05:27.913Z,10.22
2022-10-31T02:08:13.845Z,10.95
2022-10-31T02:10:59.822Z,10.89
2022-10-31T02:13:45.597Z,10.22
2022-10-31T02:16:31.346Z,10.01
2022-10-31T02:19:17.254Z,9.99
2022-10-31T02:22:03.303Z,9.82
2022-10-31T02:24:48.989Z,9.45
2022-10-31T02:27:34.858Z,9.39
2022-10-31T02:30:20.533Z,9.67
2022-10-31T02:33:06.386Z,8.93
2022-10-31T02:35:52.263Z,10.12
2022-10-31T02:38:38.172Z,8.62
2022-10-31T02:41:24.113Z,9.54
2022-10-31T02:44:09.976Z,9.89
2022-10-31T02:46:55.870Z,11.32
2022-10-31T02:49:41.689Z,11.76
2022-10-31T02:52:27.489Z,10.28
2022-10-31T02:55:13.452Z,10.12
2022-10-31T02:57:59.573Z,10.63
2022-10-31T03:00:47.102Z,10.75
2022-10-31T03:03:35.640Z,11.49
2022-10-31T03:06:21.708Z,10.93
2022-10-31T03:09:07.654Z,11.14
2022-10-31T03:11:53.531Z,9.72
2022-10-31T03:14:39.375Z,11.79
2022-10-31T03:17:25.191Z,12.82
2022-10-31T03:20:11.233Z,13.45
2022-10-31T03:22:57.032Z,12.12
2022-10-31T03:25:42.814Z,10.55
2022-10-31T03:28:28.765Z,10.54
2022-10-31T03:31:14.505Z,11.60
2022-10-31T03:34:00.458Z,10.30
2022-10-31T03:36:46.283Z,10.32
2022-10-31T03:39:32.187Z,12.21
2022-10-31T03:42:17.963Z,12.85
2022-10-31T03:45:03.784Z,10.67
2022-10-31T03:47:49.591Z,11.92
2022-10-31T03:50:35.597Z,11.79
2022-10-31T03:53:21.399Z,10.96
2022-10-31T03:56:07.297Z,11.11
2022-10-31T03:58:53.036Z,11.09
2022-10-31T04:01:39.162Z,11.75
2022-10-31T04:04:25.078Z,11.14
2022-10-31T04:07:11.065Z,10.92
2022-10-31T04:09:59.346Z,11.21
2022-10-31T04:13:00.091Z,11.47
2022-10-31T04:15:46.117Z,11.33
2022-10-31T04:18:32.130Z,11.02
2022-10-31T04:21:17.991Z,10.86
2022-10-31T04:24:03.877Z,11.32
2022-10-31T04:26:49.641Z,9.91
2022-10-31T04:29:35.457Z,10.19
2022-10-31T04:32:21.390Z,10.49
2022-10-31T04:35:07.534Z,11.02
2022-10-31T04:37:53.474Z,11.10
2022-10-31T04:40:39.357Z,10.70
2022-10-31T04:43:25.113Z,10.16
2022-10-31T04:46:11.013Z,10.74
2022-10-31T04:48:56.925Z,10.40
2022-10-31T04:51:42.715Z,10.73
2022-10-31T04:54:28.595Z,10.48
2022-10-31T04:57:14.552Z,11.19
2022-10-31T05:00:00.349Z,10.75
2022-10-31T05:02:46.153Z,10.28
2022-10-31T05:05:31.925Z,9.29
2022-10-31T05:08:17.848Z,10.10
2022-10-31T05:11:04.728Z,10.23
2022-10-31T05:13:50.757Z,10.05
2022-10-31T05:16:36.712Z,9.92
2022-10-31T05:19:22.537Z,9.49
2022-10-31T05:22:08.530Z,10.29
2022-10-31T05:24:54.475Z,10.39
2022-10-31T05:27:40.270Z,10.41
2022-10-31T05:30:26.129Z,10.42
2022-10-31T05:33:12.004Z,8.66
2022-10-31T05:35:57.675Z,8.78
2022-10-31T05:38:43.457Z,9.06
2022-10-31T05:41:29.331Z,9.63
2022-10-31T05:44:15.109Z,9.42
2022-10-31T05:47:00.833Z,9.40
2022-10-31T05:49:46.654Z,9.86
2022-10-31T05:52:32.569Z,10.37
2022-10-31T05:55:18.405Z,9.60
2022-10-31T05:58:04.426Z,9.72
2022-10-31T06:00:50.754Z,9.68
2022-10-31T06:03:36.544Z,9.76
2022-10-31T06:06:22.392Z,10.16
2022-10-31T06:09:08.308Z,11.59
2022-10-31T06:11:54.269Z,12.49
2022-10-31T06:14:40.049Z,12.10
2022-10-31T06:17:25.917Z,9.81
2022-10-31T06:20:11.788Z,8.94
2022-10-31T06:22:58.094Z,9.27
2022-10-31T06:25:44.197Z,10.23
2022-10-31T06:28:31.160Z,10.44
2022-10-31T06:31:17.530Z,10.67
2022-10-31T06:34:03.220Z,10.67
2022-10-31T06:36:49.113Z,10.40
2022-10-31T06:39:34.993Z,10.75
2022-10-31T06:42:20.858Z,10.52
2022-10-31T06:45:06.715Z,10.20
2022-10-31T06:48:15.420Z,10.66
2022-10-31T06:51:00.436Z,11.46
2022-10-31T06:53:46.362Z,11.83
2022-10-31T06:56:32.285Z,11.94
2022-10-31T06:59:18.135Z,12.27
2022-10-31T07:02:04.270Z,10.19
2022-10-31T07:04:50.651Z,9.72
2022-10-31T07:07:36.525Z,10.90
2022-10-31T07:10:22.440Z,11.89
2022-10-31T07:13:08.338Z,10.89
2022-10-31T07:15:54.295Z,11.35
2022-10-31T07:18:40.125Z,11.30
2022-10-31T07:21:26.056Z,10.88
2022-10-31T07:24:13.900Z,10.98
2022-10-31T07:29:51.018Z,11.00
2022-10-31T07:32:36.797Z,10.41
2022-10-31T07:35:22.667Z,9.89
2022-10-31T07:38:08.459Z,10.33
2022-10-31T07:40:54.361Z,10.15
2022-10-31T07:43:40.449Z,9.62
2022-10-31T07:46:26.594Z,9.47
2022-10-31T07:49:12.561Z,8.83
2022-10-31T07:51:58.303Z,8.55
2022-10-31T07:54:44.097Z,7.78
2022-10-31T07:57:34.486Z,7.27
2022-10-31T08:00:20.692Z,7.30
2022-10-31T08:03:06.356Z,7.29
2022-10-31T08:05:52.241Z,7.77
2022-10-31T08:08:38.510Z,7.35
2022-10-31T08:11:24.468Z,7.10
2022-10-31T08:14:10.287Z,7.06
2022-10-31T08:16:56.130Z,7.12
2022-10-31T08:19:41.960Z,7.28
2022-10-31T08:22:27.973Z,7.19
2022-10-31T08:25:13.816Z,7.95
2022-10-31T08:28:00.029Z,7.66
2022-10-31T08:30:46.203Z,7.44
2022-10-31T08:33:32.038Z,5.96
2022-10-31T08:36:17.948Z,6.34
2022-10-31T08:39:03.713Z,7.40
2022-10-31T08:41:49.562Z,7.44
2022-10-31T08:44:35.522Z,7.37
2022-10-31T08:47:21.360Z,6.88
2022-10-31T08:50:07.259Z,6.38
2022-10-31T08:53:04.612Z,6.38
2022-10-31T08:55:51.621Z,6.34
2022-10-31T08:58:40.255Z,6.25
2022-10-31T09:01:26.302Z,6.32
2022-10-31T09:04:12.395Z,7.69
2022-10-31T09:10:04.405Z,8.93
2022-10-31T09:12:50.253Z,8.25
2022-10-31T09:15:36.329Z,9.40
2022-10-31T09:18:22.156Z,8.57
2022-10-31T09:21:08.053Z,8.51
2022-10-31T09:23:54.060Z,10.17
2022-10-31T09:26:39.959Z,12.79
2022-10-31T09:29:25.949Z,10.12
2022-10-31T09:32:11.895Z,15.65
2022-10-31T09:34:57.850Z,10.68
2022-10-31T09:37:43.817Z,11.45
2022-10-31T09:40:29.672Z,11.50
2022-10-31T09:43:15.600Z,11.46
2022-10-31T09:46:01.536Z,11.91
2022-10-31T09:48:47.375Z,10.95
2022-10-31T09:51:33.297Z,11.37
2022-10-31T09:54:19.071Z,11.34
2022-10-31T09:57:05.054Z,11.08
2022-10-31T09:59:53.118Z,11.63
2022-10-31T10:02:38.947Z,11.76
2022-10-31T10:05:24.850Z,11.82
2022-10-31T10:08:10.728Z,12.54
2022-10-31T10:10:56.519Z,11.00
2022-10-31T10:13:42.513Z,11.51
2022-10-31T10:16:28.516Z,12.17
2022-10-31T10:19:14.371Z,11.47
2022-10-31T10:22:00.274Z,9.27
2022-10-31T10:24:46.136Z,8.69
2022-10-31T10:27:32.101Z,9.06
2022-10-31T10:30:18.014Z,10.76
2022-10-31T10:33:03.856Z,9.47
2022-10-31T10:35:49.694Z,8.65
2022-10-31T10:38:35.553Z,10.42
2022-10-31T10:41:21.471Z,12.29
2022-10-31T10:44:07.625Z,13.92
2022-10-31T10:46:53.316Z,13.27
2022-10-31T10:49:39.151Z,17.45
2022-10-31T10:52:40.939Z,13.42
2022-10-31T10:55:30.593Z,15.52
2022-10-31T10:58:16.473Z,16.64
2022-10-31T11:01:02.535Z,15.14
2022-10-31T11:03:48.825Z,14.33
2022-10-31T11:06:34.643Z,13.61
2022-10-31T11:09:20.712Z,13.98
2022-10-31T11:12:06.637Z,13.64
2022-10-31T11:14:52.603Z,12.86
2022-10-31T11:17:38.497Z,12.85
2022-10-31T11:20:24.342Z,14.00
2022-10-31T11:23:10.674Z,15.43
2022-10-31T11:25:57.149Z,13.59
2022-10-31T11:28:42.985Z,12.62
2022-10-31T11:31:28.926Z,14.26
2022-10-31T11:34:14.734Z,13.99
2022-10-31T11:37:00.845Z,12.36
2022-10-31T11:39:46.630Z,13.28
2022-10-31T11:42:32.676Z,13.31
2022-10-31T11:45:18.690Z,13.67
2022-10-31T11:48:04.758Z,13.87
2022-10-31T11:50:51.015Z,14.20
2022-10-31T11:53:36.953Z,13.92
2022-10-31T11:56:22.762Z,12.82
2022-10-31T11:59:08.540Z,12.56
2022-10-31T12:01:55.989Z,12.67
2022-10-31T12:04:42.265Z,12.57
2022-10-31T12:07:28.201Z,12.27
2022-10-31T12:10:14.167Z,12.80
2022-10-31T12:13:00.337Z,12.50
2022-10-31T12:15:46.823Z,13.95
2022-10-31T12:18:32.724Z,13.75
2022-10-31T12:21:18.667Z,13.36
2022-10-31T12:24:04.548Z,13.49
2022-10-31T12:26:50.334Z,13.49
2022-10-31T12:29:36.156Z,13.43
2022-10-31T12:32:21.964Z,13.55
2022-10-31T12:35:07.961Z,13.13
2022-10-31T12:37:55.891Z,13.27
2022-10-31T12:40:41.833Z,12.91
2022-10-31T12:43:27.740Z,14.07
2022-10-31T12:46:13.701Z,14.88
2022-10-31T12:48:59.517Z,13.66
2022-10-31T12:51:45.508Z,14.77
2022-10-31T12:54:31.343Z,14.40
2022-10-31T12:57:17.239Z,13.91
2022-10-31T13:00:03.235Z,13.80
2022-10-31T13:02:48.939Z,14.10
2022-10-31T13:05:34.801Z,15.17
2022-10-31T13:08:20.716Z,14.96
2022-10-31T13:11:06.623Z,14.91
2022-10-31T13:13:52.664Z,14.16
2022-10-31T13:16:38.461Z,13.67
2022-10-31T13:19:24.281Z,13.25
2022-10-31T13:22:10.155Z,13.62
2022-10-31T13:24:56.120Z,13.48
2022-10-31T13:27:42.092Z,12.80
2022-10-31T13:30:27.962Z,12.66
2022-10-31T13:33:14.078Z,14.42
2022-10-31T13:35:59.940Z,15.36
2022-10-31T13:38:45.729Z,16.50
2022-10-31T13:41:31.712Z,17.88
2022-10-31T13:44:17.582Z,17.42
2022-10-31T13:47:03.513Z,17.53
2022-10-31T13:49:49.550Z,17.69
2022-10-31T13:52:35.475Z,19.04
2022-10-31T13:55:21.316Z,18.78
2022-10-31T13:58:07.284Z,19.40
2022-10-31T14:00:53.168Z,19.01
2022-10-31T14:04:04.554Z,17.93
2022-10-31T14:06:45.182Z,17.72
2022-10-31T14:09:31.311Z,16.57
2022-10-31T14:12:17.248Z,15.70
2022-10-31T14:15:03.151Z,14.44
2022-10-31T14:17:49.012Z,12.28
2022-10-31T14:20:35.028Z,11.42
2022-10-31T14:23:20.988Z,11.51
2022-10-31T14:26:06.939Z,11.82
2022-10-31T14:28:52.867Z,9.15
2022-10-31T14:31:38.630Z,8.19
2022-10-31T14:34:24.480Z,7.73
2022-10-31T14:37:10.484Z,7.66
2022-10-31T14:39:56.286Z,7.84
2022-10-31T14:42:42.184Z,7.39
2022-10-31T14:45:27.930Z,7.13
2022-10-31T14:48:16.071Z,6.86
2022-10-31T14:51:01.957Z,6.05
2022-10-31T14:53:47.964Z,6.04
2022-10-31T14:56:35.753Z,5.95
2022-10-31T14:59:21.640Z,5.71
2022-10-31T15:02:07.602Z,5.64
2022-10-31T15:04:53.850Z,5.41
2022-10-31T15:07:39.793Z,6.17
2022-10-31T15:10:25.704Z,5.96
2022-10-31T15:13:11.732Z,6.45
2022-10-31T15:15:57.617Z,6.00
2022-10-31T15:18:43.300Z,6.30
2022-10-31T15:21:29.191Z,6.02
2022-10-31T15:24:17.140Z,6.04
2022-10-31T15:27:05.111Z,5.57
2022-10-31T15:29:51.317Z,5.97
2022-10-31T15:32:37.176Z,5.62
2022-10-31T15:35:23.129Z,5.71
2022-10-31T15:38:09.051Z,5.82
2022-10-31T15:40:54.874Z,6.27
2022-10-31T15:43:40.821Z,5.78
2022-10-31T15:46:26.843Z,5.94
2022-10-31T15:49:12.595Z,5.60
2022-10-31T15:54:49.744Z,6.29
2022-10-31T15:57:35.552Z,5.96
2022-10-31T16:00:21.483Z,6.02
2022-10-31T16:03:07.420Z,6.49
2022-10-31T16:05:53.285Z,6.80
2022-10-31T16:08:39.094Z,6.63
2022-10-31T16:11:24.862Z,6.82
2022-10-31T16:14:10.601Z,6.97
2022-10-31T16:16:56.414Z,7.42
2022-10-31T16:19:42.279Z,7.62
2022-10-31T16:22:28.300Z,7.53
2022-10-31T16:25:14.372Z,7.47
2022-10-31T16:28:00.238Z,7.66
2022-10-31T16:30:48.457Z,7.36
2022-10-31T16:33:34.654Z,7.53
2022-10-31T16:36:34.348Z,7.39
2022-10-31T16:39:21.168Z,7.78
2022-10-31T16:42:07.364Z,7.98
2022-10-31T16:44:53.364Z,8.17
2022-10-31T16:47:39.370Z,8.50
2022-10-31T16:50:25.183Z,8.79
2022-10-31T16:53:14.867Z,9.01
2022-10-31T16:56:01.105Z,8.88
2022-10-31T16:58:46.939Z,8.71
2022-10-31T17:01:32.910Z,8.87
2022-10-31T17:04:19.241Z,9.40
2022-10-31T17:07:04.972Z,9.47
2022-10-31T17:09:50.962Z,9.55
2022-10-31T17:12:37.003Z,9.87
2022-10-31T17:15:22.788Z,9.90
2022-10-31T17:18:08.872Z,10.54
2022-10-31T17:20:56.792Z,9.84
2022-10-31T17:23:42.662Z,10.24
2022-10-31T17:26:28.620Z,10.30
2022-10-31T17:29:14.513Z,10.23
2022-10-31T17:32:00.351Z,10.08
2022-10-31T17:34:46.305Z,10.00
2022-10-31T17:37:32.120Z,10.07
2022-10-31T17:40:17.958Z,9.51
2022-10-31T17:43:04.062Z,9.75
2022-10-31T17:45:50.055Z,9.63
2022-10-31T17:48:36.081Z,9.51
2022-10-31T17:51:21.803Z,9.93
2022-10-31T17:54:07.651Z,10.21
2022-10-31T17:56:53.540Z,9.86
2022-10-31T17:59:39.262Z,9.33
2022-10-31T18:02:25.288Z,9.48
2022-10-31T18:05:11.469Z,9.59
2022-10-31T18:08:00.878Z,9.54
2022-10-31T18:10:49.826Z,9.77
2022-10-31T18:13:35.630Z,9.76
2022-10-31T18:16:21.505Z,9.35
2022-10-31T18:19:07.481Z,8.87
2022-10-31T18:21:53.384Z,8.33
2022-10-31T18:24:39.318Z,8.23
2022-10-31T18:27:25.061Z,8.06
2022-10-31T18:30:10.835Z,7.51
2022-10-31T18:32:56.709Z,8.05
2022-10-31T18:35:42.762Z,7.76
2022-10-31T18:38:28.476Z,7.94
2022-10-31T18:41:14.327Z,7.95
2022-10-31T18:44:00.342Z,7.79
2022-10-31T18:46:46.150Z,7.88
2022-10-31T18:49:32.004Z,7.78
2022-10-31T18:52:17.820Z,8.36
2022-10-31T18:55:03.693Z,8.30
2022-10-31T18:57:49.739Z,8.53
2022-10-31T19:00:35.531Z,8.73
2022-10-31T19:03:25.849Z,8.64
2022-10-31T19:06:12.432Z,8.55
2022-10-31T19:08:58.251Z,8.33
2022-10-31T19:11:44.155Z,8.37
2022-10-31T19:14:30.286Z,8.08
2022-10-31T19:17:16.111Z,7.65
2022-10-31T19:20:02.046Z,7.45
2022-10-31T19:22:49.943Z,7.51
2022-10-31T19:25:35.865Z,7.44
2022-10-31T19:28:21.660Z,7.20
2022-10-31T19:31:07.419Z,7.30
2022-10-31T19:33:53.155Z,7.36
2022-10-31T19:36:39.100Z,7.66
2022-10-31T19:39:24.824Z,7.94
2022-10-31T19:42:10.667Z,7.85
2022-10-31T19:44:56.588Z,8.08
2022-10-31T19:47:42.430Z,7.88
2022-10-31T19:50:28.365Z,8.28
2022-10-31T19:53:14.146Z,8.00
2022-10-31T19:56:00.033Z,8.08
2022-10-31T19:58:46.004Z,7.91
2022-10-31T20:01:31.978Z,8.30
2022-10-31T20:04:17.829Z,8.65
2022-10-31T20:07:03.755Z,8.86
2022-10-31T20:09:49.644Z,9.11
2022-10-31T20:12:35.591Z,8.87
2022-10-31T20:15:21.407Z,9.28
2022-10-31T20:18:07.247Z,9.08
2022-10-31T20:20:53.632Z,10.02
2022-10-31T20:23:39.591Z,9.41
2022-10-31T20:26:25.476Z,9.16
2022-10-31T20:29:11.435Z,9.62
2022-10-31T20:31:57.209Z,8.21
2022-10-31T20:34:43.170Z,7.58
2022-10-31T20:37:29.159Z,7.05
2022-10-31T20:40:15.088Z,7.12
2022-10-31T20:43:01.041Z,6.51
2022-10-31T20:45:46.936Z,6.70
2022-10-31T20:48:32.984Z,6.84
2022-10-31T20:51:18.795Z,6.79
2022-10-31T20:54:04.704Z,7.34
2022-10-31T20:56:50.574Z,7.07
2022-10-31T20:59:36.425Z,7.03
2022-10-31T21:02:22.444Z,7.21
2022-10-31T21:05:10.395Z,6.97
2022-10-31T21:07:56.259Z,6.66
2022-10-31T21:10:42.170Z,6.61
2022-10-31T21:13:28.075Z,6.65
2022-10-31T21:16:13.922Z,6.64
2022-10-31T21:18:59.821Z,6.53
2022-10-31T21:21:45.612Z,6.31
2022-10-31T21:24:31.522Z,6.41
2022-10-31T21:27:17.534Z,6.38
2022-10-31T21:30:03.245Z,6.11
2022-10-31T21:32:49.118Z,6.11
2022-10-31T21:35:35.088Z,6.04
2022-10-31T21:38:21.056Z,5.85
2022-10-31T21:41:06.989Z,6.10
2022-10-31T21:43:52.796Z,6.28
2022-10-31T21:46:40.821Z,6.08
2022-10-31T21:49:26.613Z,6.00
2022-10-31T21:52:12.328Z,6.54
2022-10-31T21:54:58.271Z,6.25
2022-10-31T21:57:44.285Z,6.31
2022-10-31T22:00:30.079Z,6.38
2022-10-31T22:03:16.071Z,6.75
2022-10-31T22:06:01.829Z,6.84
2022-10-31T22:08:47.801Z,7.09
2022-10-31T22:11:33.678Z,7.07
2022-10-31T22:14:19.384Z,6.78
2022-10-31T22:17:05.379Z,6.62
2022-10-31T22:19:51.069Z,6.60
2022-10-31T22:22:36.968Z,6.62
2022-10-31T22:25:23.077Z,6.55
2022-10-31T22:28:08.909Z,6.04
2022-10-31T22:30:54.711Z,6.45
2022-10-31T22:33:40.551Z,6.60
2022-10-31T22:36:26.454Z,6.40
2022-10-31T22:39:12.346Z,6.46
2022-10-31T22:41:58.179Z,6.22
2022-10-31T22:44:43.997Z,6.35
2022-10-31T22:47:29.978Z,6.28
2022-10-31T22:50:15.788Z,6.27
2022-10-31T22:53:01.644Z,6.41
2022-10-31T22:55:47.564Z,6.28
2022-10-31T22:58:33.470Z,6.51
2022-10-31T23:01:19.566Z,6.32
2022-10-31T23:04:05.773Z,5.95
2022-10-31T23:06:51.645Z,6.36
2022-10-31T23:09:37.521Z,6.12
2022-10-31T23:12:23.259Z,6.52
2022-10-31T23:15:09.182Z,6.11
2022-10-31T23:17:55.052Z,6.11
2022-10-31T23:23:32.553Z,6.42
2022-10-31T23:26:18.495Z,5.90
2022-10-31T23:29:04.528Z,5.81
2022-10-31T23:31:50.413Z,6.27
2022-10-31T23:34:36.248Z,5.95
2022-10-31T23:37:22.135Z,6.28
2022-10-31T23:40:09.964Z,5.99
2022-10-31T23:42:55.972Z,6.18
2022-10-31T23:45:41.864Z,6.28
2022-10-31T23:48:27.795Z,5.97
2022-10-31T23:51:13.594Z,5.70
2022-10-31T23:53:59.494Z,5.78
2022-10-31T23:56:45.411Z,5.68
2022-10-31T23:59:31.223Z,5.97
